Time;durP1;ratioP1;P1;durP2;ratioP2;P2;SDS_P1;SDS_P2;PMS_P1;PMS_P2;Temp;Humidity;BMP_temperature;BMP_pressure;BME280_temperature;BME280_humidity;BME280_pressure;Samples;Min_cycle;Max_cycle;Signal;HPM_P1;HPM_P2
2023/12/28 00:01:22;;;;;;;2.15;1.67;;;17.70;59.50;;;;;;4985095;28;20030;-65
2023/12/28 00:03:48;;;;;;;2.65;1.48;;;17.80;59.50;;;;;;4984958;28;20031;-65
2023/12/28 00:06:13;;;;;;;2.33;1.52;;;17.70;59.50;;;;;;4985970;28;20594;-65
2023/12/28 00:08:40;;;;;;;1.92;1.40;;;17.70;59.50;;;;;;4990034;28;20044;-65
2023/12/28 00:11:05;;;;;;;1.80;1.33;;;17.80;59.60;;;;;;4972117;28;20038;-65
2023/12/28 00:13:30;;;;;;;2.35;1.55;;;17.70;59.50;;;;;;4992203;28;20030;-65
2023/12/28 00:15:56;;;;;;;2.25;1.63;;;17.70;59.60;;;;;;4990030;28;20386;-66
2023/12/28 00:18:21;;;;;;;2.63;1.67;;;17.70;59.50;;;;;;4988899;28;20038;-65
2023/12/28 00:20:47;;;;;;;4.68;1.90;;;17.70;59.50;;;;;;4972741;28;20026;-66
2023/12/28 00:23:12;;;;;;;2.15;1.63;;;17.70;59.60;;;;;;4989875;28;20509;-66
2023/12/28 00:25:38;;;;;;;2.83;2.05;;;17.70;59.60;;;;;;4990060;28;20022;-65
2023/12/28 00:28:04;;;;;;;2.95;2.17;;;17.70;59.60;;;;;;4955572;28;20023;-65
2023/12/28 00:30:29;;;;;;;1.88;1.52;;;17.60;59.60;;;;;;4988000;28;20034;-65
2023/12/28 00:32:55;;;;;;;2.97;1.90;;;17.70;59.60;;;;;;4988784;28;20033;-65
2023/12/28 00:35:20;;;;;;;2.13;1.70;;;17.60;59.60;;;;;;4988282;28;20046;-66
2023/12/28 00:37:46;;;;;;;1.75;1.58;;;17.60;59.60;;;;;;4988772;28;20081;-65
2023/12/28 00:40:11;;;;;;;3.35;2.08;;;17.60;59.70;;;;;;4987533;28;20875;-65
2023/12/28 00:42:37;;;;;;;2.20;1.95;;;17.60;59.60;;;;;;4991710;28;20058;-65
2023/12/28 00:45:02;;;;;;;2.92;1.70;;;17.60;59.60;;;;;;4990034;28;20038;-67
2023/12/28 00:47:28;;;;;;;2.70;2.15;;;17.60;59.70;;;;;;4990693;28;20107;-65
2023/12/28 00:49:54;;;;;;;4.35;2.17;;;17.60;59.70;;;;;;4992100;28;20117;-66
2023/12/28 00:52:19;;;;;;;2.08;1.67;;;17.50;59.60;;;;;;4987376;28;20034;-69
2023/12/28 00:54:45;;;;;;;3.63;2.40;;;17.60;59.70;;;;;;4992591;28;20425;-69
2023/12/28 00:57:10;;;;;;;3.33;2.00;;;17.60;59.70;;;;;;4987793;28;20038;-68
2023/12/28 00:59:36;;;;;;;3.75;1.75;;;17.50;59.60;;;;;;4991537;28;20189;-68
2023/12/28 01:02:01;;;;;;;5.75;2.72;;;17.50;59.60;;;;;;4989327;28;20387;-69
2023/12/28 01:04:27;;;;;;;2.65;1.92;;;17.50;59.60;;;;;;4990270;28;20037;-66
2023/12/28 01:06:52;;;;;;;2.65;2.40;;;17.50;59.60;;;;;;4988935;28;20026;-66
2023/12/28 01:09:18;;;;;;;2.83;2.20;;;17.50;59.60;;;;;;4991028;28;20100;-67
2023/12/28 01:11:44;;;;;;;3.83;2.08;;;17.50;59.60;;;;;;4974204;28;20035;-66
2023/12/28 01:14:09;;;;;;;4.50;2.70;;;17.50;59.60;;;;;;4988878;28;20038;-65
2023/12/28 01:16:35;;;;;;;3.65;2.40;;;17.50;59.70;;;;;;4987188;28;20125;-66
2023/12/28 01:19:01;;;;;;;4.20;2.42;;;17.50;59.70;;;;;;4986948;28;20049;-66
2023/12/28 01:21:28;;;;;;;3.72;2.30;;;17.50;59.70;;;;;;4987750;28;20112;-67
2023/12/28 01:23:54;;;;;;;2.92;2.13;;;17.50;59.70;;;;;;4987634;28;20033;-67
2023/12/28 01:26:20;;;;;;;4.68;2.70;;;17.50;59.70;;;;;;4986963;28;20034;-67
2023/12/28 01:28:46;;;;;;;3.60;2.50;;;17.50;59.70;;;;;;4991723;28;20501;-67
2023/12/28 01:31:11;;;;;;;3.72;2.45;;;17.40;59.70;;;;;;4988235;28;20096;-67
2023/12/28 01:33:37;;;;;;;4.22;2.80;;;17.40;59.70;;;;;;4988302;28;20030;-67
2023/12/28 01:36:02;;;;;;;3.05;2.33;;;17.50;59.90;;;;;;4987941;28;20540;-68
2023/12/28 01:38:28;;;;;;;5.28;2.85;;;17.50;59.80;;;;;;4987126;28;20034;-67
2023/12/28 01:40:53;;;;;;;3.63;2.75;;;17.60;59.60;;;;;;4987078;28;20037;-67
2023/12/28 01:43:19;;;;;;;5.10;2.63;;;17.70;59.30;;;;;;4986839;28;20037;-66
2023/12/28 01:45:45;;;;;;;4.82;2.90;;;18.00;58.80;;;;;;4987514;28;20437;-66
2023/12/28 01:48:13;;;;;;;7.20;3.22;;;18.10;58.30;;;;;;4986900;28;20050;-67
2023/12/28 01:50:39;;;;;;;4.57;3.20;;;18.40;57.80;;;;;;4991657;28;20061;-67
2023/12/28 01:53:04;;;;;;;3.75;2.72;;;18.60;57.30;;;;;;4987804;28;20489;-66
2023/12/28 01:55:31;;;;;;;3.10;2.38;;;18.80;56.80;;;;;;4990520;28;20076;-67
2023/12/28 01:57:57;;;;;;;3.47;2.65;;;19.10;56.40;;;;;;4969515;28;20030;-63
2023/12/28 02:00:24;;;;;;;3.70;2.63;;;19.30;56.00;;;;;;4986524;28;20065;-67
2023/12/28 02:02:51;;;;;;;4.78;2.97;;;19.40;55.60;;;;;;4984096;28;20078;-66
2023/12/28 02:05:17;;;;;;;3.75;2.55;;;19.60;55.50;;;;;;4982302;28;20056;-66
2023/12/28 02:07:42;;;;;;;4.45;2.80;;;19.70;55.10;;;;;;4983541;28;20030;-65
2023/12/28 02:10:08;;;;;;;4.70;3.22;;;19.80;54.90;;;;;;4985124;28;20034;-67
2023/12/28 02:12:34;;;;;;;4.65;3.42;;;19.90;54.90;;;;;;4982313;28;20035;-65
2023/12/28 02:15:00;;;;;;;3.35;3.05;;;20.00;54.80;;;;;;4983371;28;20030;-66
2023/12/28 02:17:36;;;;;;;3.28;2.50;;;19.90;54.80;;;;;;4982300;28;20106;-67
2023/12/28 02:20:06;;;;;;;4.07;3.10;;;19.90;54.90;;;;;;4983803;28;20065;-67
2023/12/28 02:22:33;;;;;;;5.13;3.40;;;19.90;55.00;;;;;;4970474;28;20027;-67
2023/12/28 02:25:13;;;;;;;4.15;3.03;;;19.80;55.20;;;;;;4982356;28;20046;-66
2023/12/28 02:27:46;;;;;;;4.18;3.20;;;19.70;55.40;;;;;;4960341;28;20573;-67
2023/12/28 02:30:12;;;;;;;3.22;2.33;;;19.60;55.60;;;;;;4981696;28;20045;-67
2023/12/28 02:33:07;;;;;;;4.13;2.92;;;19.60;55.80;;;;;;4983407;28;20038;-67
2023/12/28 02:35:35;;;;;;;5.22;3.47;;;19.50;55.90;;;;;;4982103;28;20070;-66
2023/12/28 02:38:08;;;;;;;4.28;3.00;;;19.40;56.10;;;;;;4984153;28;20110;-67
2023/12/28 02:40:38;;;;;;;4.38;3.55;;;19.40;56.30;;;;;;4985254;28;20041;-67
2023/12/28 02:43:05;;;;;;;4.03;3.08;;;19.30;56.40;;;;;;4969866;28;20022;-67
2023/12/28 02:45:31;;;;;;;4.75;3.05;;;19.20;56.50;;;;;;4984836;28;20026;-67
2023/12/28 02:47:56;;;;;;;4.55;3.13;;;19.20;56.70;;;;;;4986341;28;20030;-66
2023/12/28 02:50:22;;;;;;;5.78;3.30;;;19.10;56.80;;;;;;4985431;28;20046;-67
2023/12/28 02:52:47;;;;;;;4.07;2.80;;;19.00;56.90;;;;;;4969769;28;20054;-67
2023/12/28 02:55:13;;;;;;;4.90;3.22;;;19.00;57.10;;;;;;4989850;28;20116;-66
2023/12/28 02:57:38;;;;;;;4.50;3.25;;;19.00;57.30;;;;;;4985596;28;20068;-67
2023/12/28 03:00:10;;;;;;;5.53;3.33;;;18.90;57.40;;;;;;4990243;28;20066;-67
2023/12/28 03:02:37;;;;;;;5.40;3.53;;;18.80;57.40;;;;;;4972652;28;20031;-68
2023/12/28 03:05:03;;;;;;;4.68;3.30;;;18.80;57.60;;;;;;4989752;28;20420;-67
2023/12/28 03:07:29;;;;;;;3.35;2.75;;;18.70;57.70;;;;;;4983628;28;20113;-65
2023/12/28 03:09:54;;;;;;;3.88;2.58;;;18.70;58.40;;;;;;4969065;28;20458;-67
2023/12/28 03:12:20;;;;;;;4.28;3.30;;;18.60;57.80;;;;;;4983102;28;20065;-66
2023/12/28 03:14:45;;;;;;;5.20;3.53;;;18.60;58.00;;;;;;4982908;28;20035;-67
2023/12/28 03:17:11;;;;;;;3.58;2.75;;;18.60;58.00;;;;;;4983374;28;20039;-66
2023/12/28 03:19:37;;;;;;;4.75;3.42;;;18.50;58.10;;;;;;4982804;28;20579;-67
2023/12/28 03:22:03;;;;;;;4.90;3.00;;;18.50;58.20;;;;;;4985397;28;20038;-71
2023/12/28 03:24:28;;;;;;;4.88;3.00;;;18.40;58.30;;;;;;4984218;28;20500;-66
2023/12/28 03:26:54;;;;;;;3.60;2.97;;;18.40;58.30;;;;;;4969745;28;20041;-65
2023/12/28 03:29:20;;;;;;;3.83;3.20;;;18.40;58.40;;;;;;4984688;28;20569;-65
2023/12/28 03:31:45;;;;;;;4.32;3.25;;;18.30;58.40;;;;;;4967375;28;20039;-66
2023/12/28 03:34:11;;;;;;;4.65;3.13;;;18.30;58.40;;;;;;4985097;28;20030;-66
2023/12/28 03:36:36;;;;;;;4.18;3.00;;;18.30;58.50;;;;;;4987463;28;20026;-67
2023/12/28 03:39:03;;;;;;;3.58;3.08;;;18.30;58.70;;;;;;4985171;28;20121;-66
2023/12/28 03:41:29;;;;;;;4.60;3.10;;;18.20;58.60;;;;;;4986908;28;20034;-67
2023/12/28 03:43:55;;;;;;;3.83;3.05;;;18.20;58.60;;;;;;4988574;28;20041;-67
2023/12/28 03:46:20;;;;;;;4.53;2.95;;;18.20;58.60;;;;;;4990502;28;20034;-66
2023/12/28 03:48:46;;;;;;;3.97;3.30;;;18.20;58.70;;;;;;4989697;28;20034;-66
2023/12/28 03:51:15;;;;;;;5.28;2.72;;;18.20;58.70;;;;;;4989800;28;20042;-67
2023/12/28 03:53:41;;;;;;;5.57;3.45;;;18.10;58.70;;;;;;4988852;28;20624;-66
2023/12/28 03:56:06;;;;;;;4.05;2.88;;;18.10;58.70;;;;;;4988708;28;20022;-66
2023/12/28 03:58:32;;;;;;;3.63;2.72;;;18.10;58.70;;;;;;4989088;28;20721;-66
2023/12/28 04:00:57;;;;;;;5.32;3.33;;;18.10;58.70;;;;;;4985815;28;20034;-67
2023/12/28 04:03:23;;;;;;;4.20;3.13;;;18.10;58.80;;;;;;4985753;28;20034;-66
2023/12/28 04:05:48;;;;;;;5.65;3.38;;;18.10;59.00;;;;;;4985779;28;20665;-66
2023/12/28 04:08:14;;;;;;;3.55;2.83;;;18.00;58.90;;;;;;4988620;28;20366;-66
2023/12/28 04:10:39;;;;;;;3.70;3.08;;;18.00;58.90;;;;;;4988004;28;20029;-66
2023/12/28 04:13:05;;;;;;;4.47;2.92;;;18.00;59.10;;;;;;4987277;28;20035;-66
2023/12/28 04:15:30;;;;;;;4.82;3.63;;;18.00;59.00;;;;;;4984556;28;20062;-67
2023/12/28 04:17:56;;;;;;;4.78;3.72;;;18.00;59.00;;;;;;4989800;28;20031;-66
2023/12/28 04:20:22;;;;;;;3.63;2.80;;;18.00;59.00;;;;;;4988244;28;20093;-66
2023/12/28 04:22:47;;;;;;;3.70;2.72;;;17.90;59.00;;;;;;4990380;28;20069;-67
2023/12/28 04:25:13;;;;;;;3.45;2.83;;;17.90;59.00;;;;;;4988098;28;20062;-66
2023/12/28 04:27:39;;;;;;;5.60;3.00;;;17.90;59.10;;;;;;4988440;28;20467;-66
2023/12/28 04:30:05;;;;;;;3.75;2.70;;;17.90;59.10;;;;;;4988438;28;20053;-66
2023/12/28 04:32:32;;;;;;;4.45;3.08;;;17.80;59.20;;;;;;4988615;28;20033;-64
2023/12/28 04:34:57;;;;;;;4.95;3.03;;;17.80;59.10;;;;;;4985282;28;20660;-66
2023/12/28 04:37:23;;;;;;;3.83;2.83;;;17.80;59.20;;;;;;4974727;28;20037;-66
2023/12/28 04:39:49;;;;;;;4.05;3.00;;;17.80;59.20;;;;;;4988398;28;20053;-66
2023/12/28 04:42:14;;;;;;;3.55;2.80;;;17.80;59.20;;;;;;4991430;28;20498;-66
2023/12/28 04:44:40;;;;;;;3.50;2.50;;;17.80;59.30;;;;;;4978378;28;20042;-66
2023/12/28 04:47:06;;;;;;;4.60;3.45;;;17.80;59.20;;;;;;4986135;28;20038;-67
2023/12/28 04:49:31;;;;;;;4.45;2.67;;;17.70;59.30;;;;;;4991081;28;20088;-68
2023/12/28 04:51:57;;;;;;;3.85;2.58;;;17.70;59.30;;;;;;4990627;28;20088;-66
2023/12/28 04:54:23;;;;;;;4.20;2.92;;;17.70;59.30;;;;;;4987744;28;20031;-68
2023/12/28 04:56:48;;;;;;;3.25;2.75;;;17.70;59.30;;;;;;4988993;28;20026;-67
2023/12/28 04:59:14;;;;;;;4.82;2.70;;;17.70;59.30;;;;;;4988324;28;20034;-66
2023/12/28 05:01:43;;;;;;;3.75;3.15;;;17.70;59.40;;;;;;4987566;28;20105;-67
2023/12/28 05:04:09;;;;;;;4.13;3.17;;;17.70;59.30;;;;;;4987573;28;20559;-68
2023/12/28 05:06:34;;;;;;;4.25;2.80;;;17.70;59.40;;;;;;4987701;28;20134;-68
2023/12/28 05:09:00;;;;;;;4.65;3.05;;;17.70;59.40;;;;;;4986646;28;20054;-67
2023/12/28 05:11:26;;;;;;;3.75;2.47;;;17.60;59.30;;;;;;4988307;28;20461;-67
2023/12/28 05:13:52;;;;;;;3.90;2.92;;;17.60;59.40;;;;;;4983525;28;20117;-68
2023/12/28 05:16:17;;;;;;;3.92;3.05;;;17.60;59.30;;;;;;4987998;28;20058;-67
2023/12/28 05:18:43;;;;;;;4.03;2.95;;;17.60;59.30;;;;;;4987371;28;20048;-67
2023/12/28 05:21:08;;;;;;;3.88;2.63;;;17.60;59.40;;;;;;4986433;28;20061;-67
2023/12/28 05:23:34;;;;;;;3.35;2.58;;;17.60;59.40;;;;;;4987481;28;20038;-67
2023/12/28 05:25:59;;;;;;;4.85;3.33;;;17.60;59.30;;;;;;4985880;28;20528;-67
2023/12/28 05:28:25;;;;;;;3.72;2.88;;;17.60;59.40;;;;;;4970927;28;20038;-67
2023/12/28 05:30:50;;;;;;;3.20;2.50;;;17.60;59.40;;;;;;4986982;28;20026;-67
2023/12/28 05:33:16;;;;;;;2.95;2.45;;;17.60;59.40;;;;;;4987890;28;20529;-67
2023/12/28 05:35:41;;;;;;;3.92;2.63;;;17.60;59.40;;;;;;4986777;28;20022;-67
2023/12/28 05:38:07;;;;;;;3.60;2.80;;;17.50;59.40;;;;;;4990808;28;20445;-66
2023/12/28 05:40:32;;;;;;;3.65;2.83;;;17.50;59.40;;;;;;4987913;28;20026;-66
2023/12/28 05:42:58;;;;;;;3.67;2.47;;;17.50;59.40;;;;;;4990569;28;20034;-68
2023/12/28 05:45:23;;;;;;;4.40;2.83;;;17.50;59.40;;;;;;4986690;28;20031;-67
2023/12/28 05:47:50;;;;;;;3.72;2.65;;;17.50;59.40;;;;;;4989854;28;20125;-67
2023/12/28 05:50:15;;;;;;;3.65;2.50;;;17.50;59.40;;;;;;4984694;28;20088;-67
2023/12/28 05:52:41;;;;;;;4.93;2.58;;;17.50;59.40;;;;;;4989108;28;20022;-67
2023/12/28 05:55:06;;;;;;;3.47;2.42;;;17.50;59.40;;;;;;4986387;28;20057;-68
2023/12/28 05:57:32;;;;;;;3.88;2.72;;;17.50;59.40;;;;;;4970436;28;20405;-67
2023/12/28 05:59:57;;;;;;;4.25;3.00;;;17.50;59.40;;;;;;4986856;28;20547;-65
2023/12/28 06:02:23;;;;;;;3.42;2.13;;;17.50;59.50;;;;;;4969291;28;20126;-67
2023/12/28 06:04:48;;;;;;;4.10;2.50;;;17.50;59.30;;;;;;4986921;28;20045;-67
2023/12/28 06:07:14;;;;;;;3.80;2.60;;;17.70;59.10;;;;;;4986698;28;20482;-68
2023/12/28 06:09:39;;;;;;;3.85;2.60;;;17.80;58.60;;;;;;4986804;28;20026;-67
2023/12/28 06:12:06;;;;;;;3.28;2.15;;;18.10;58.30;;;;;;4986128;28;20058;-68
2023/12/28 06:14:31;;;;;;;3.42;2.58;;;18.30;57.80;;;;;;4982116;28;20080;-67
2023/12/28 06:16:57;;;;;;;3.30;2.20;;;18.50;57.20;;;;;;4986290;28;21068;-68
2023/12/28 06:19:22;;;;;;;4.30;2.63;;;18.80;56.70;;;;;;4986270;28;20043;-67
2023/12/28 06:21:49;;;;;;;2.55;2.25;;;19.00;56.30;;;;;;4986967;28;20517;-68
2023/12/28 06:24:14;;;;;;;2.72;2.20;;;19.20;56.00;;;;;;4993486;28;20122;-68
2023/12/28 06:26:44;;;;;;;3.33;2.38;;;19.40;55.60;;;;;;4986939;28;20114;-66
2023/12/28 06:29:10;;;;;;;2.72;2.33;;;19.60;55.10;;;;;;4988571;28;20038;-68
2023/12/28 06:31:36;;;;;;;3.08;2.08;;;19.80;54.90;;;;;;4986438;28;20064;-69
2023/12/28 06:34:05;;;;;;;3.35;2.20;;;19.90;54.70;;;;;;4991078;28;20761;-68
2023/12/28 06:36:31;;;;;;;2.42;1.95;;;20.00;54.50;;;;;;4986992;28;20117;-68
2023/12/28 06:38:58;;;;;;;3.50;2.17;;;20.10;54.40;;;;;;4991350;28;20580;-67
2023/12/28 06:41:24;;;;;;;3.80;2.38;;;20.10;54.30;;;;;;4987011;28;20128;-68
2023/12/28 06:43:49;;;;;;;3.58;2.33;;;20.10;54.30;;;;;;4990725;28;20034;-67
2023/12/28 06:46:15;;;;;;;3.63;2.28;;;20.10;54.50;;;;;;4986922;28;20034;-68
2023/12/28 06:48:41;;;;;;;3.75;2.20;;;20.00;54.70;;;;;;4992202;28;20496;-68
2023/12/28 06:51:07;;;;;;;2.47;2.13;;;19.90;54.80;;;;;;4985345;28;20041;-67
2023/12/28 06:53:32;;;;;;;2.70;2.17;;;19.80;54.90;;;;;;4987517;28;20031;-67
2023/12/28 06:55:58;;;;;;;3.22;2.60;;;19.80;55.10;;;;;;4973040;28;20533;-67
2023/12/28 06:58:23;;;;;;;2.70;1.90;;;19.70;55.20;;;;;;4985436;28;20046;-67
2023/12/28 07:00:49;;;;;;;2.55;2.33;;;19.60;55.40;;;;;;4988084;28;20215;-68
2023/12/28 07:03:15;;;;;;;3.33;1.92;;;19.50;55.60;;;;;;4987774;28;20485;-67
2023/12/28 07:05:40;;;;;;;3.50;1.92;;;19.50;55.70;;;;;;4985775;28;20023;-67
2023/12/28 07:08:06;;;;;;;2.85;2.47;;;19.40;55.90;;;;;;4984090;28;20026;-68
2023/12/28 07:10:31;;;;;;;2.92;2.10;;;19.40;56.10;;;;;;4977332;28;20018;-68
2023/12/28 07:12:57;;;;;;;2.90;2.17;;;19.30;56.20;;;;;;4984753;28;20084;-68
2023/12/28 07:15:22;;;;;;;1.80;1.63;;;19.20;56.30;;;;;;4984485;28;20041;-67
2023/12/28 07:17:47;;;;;;;2.60;2.03;;;19.20;56.50;;;;;;4984457;28;20096;-67
2023/12/28 07:20:13;;;;;;;3.10;2.15;;;19.10;56.60;;;;;;4985086;28;20035;-67
2023/12/28 07:22:39;;;;;;;2.75;1.83;;;19.10;56.70;;;;;;4985903;28;20513;-68
2023/12/28 07:25:06;;;;;;;2.70;2.00;;;19.00;56.90;;;;;;4986388;28;20036;-67
2023/12/28 07:27:32;;;;;;;3.65;2.33;;;19.00;57.00;;;;;;4980356;28;20489;-67
2023/12/28 07:29:57;;;;;;;2.88;2.35;;;18.90;57.10;;;;;;4986595;28;20034;-69
2023/12/28 07:32:25;;;;;;;2.95;2.00;;;18.90;57.20;;;;;;4985243;28;20030;-67
2023/12/28 07:34:54;;;;;;;2.13;1.77;;;18.80;57.30;;;;;;4991113;28;20088;-67
2023/12/28 07:37:20;;;;;;;2.97;2.03;;;18.80;57.50;;;;;;4984933;28;20510;-68
2023/12/28 07:39:46;;;;;;;2.85;2.28;;;18.70;58.10;;;;;;4986022;28;20045;-68
2023/12/28 07:42:12;;;;;;;3.53;1.83;;;18.70;57.60;;;;;;4984901;28;20113;-67
2023/12/28 07:44:37;;;;;;;2.75;2.00;;;18.60;57.60;;;;;;4988921;28;20739;-68
2023/12/28 07:47:03;;;;;;;2.50;2.30;;;18.60;57.80;;;;;;4991690;28;20026;-67
2023/12/28 07:49:30;;;;;;;3.20;2.13;;;18.60;57.80;;;;;;4986612;28;20133;-67
2023/12/28 07:51:56;;;;;;;2.25;1.60;;;18.50;57.90;;;;;;4987119;28;20050;-68
2023/12/28 07:54:21;;;;;;;3.42;1.83;;;18.50;58.00;;;;;;4984719;28;20082;-68
2023/12/28 07:56:46;;;;;;;2.25;1.80;;;18.40;58.00;;;;;;4987992;28;20026;-68
2023/12/28 07:59:12;;;;;;;2.72;2.05;;;18.40;58.00;;;;;;4984706;28;20052;-68
2023/12/28 08:01:37;;;;;;;2.22;1.70;;;18.40;58.10;;;;;;4988686;28;20022;-68
2023/12/28 08:04:03;;;;;;;1.75;1.52;;;18.40;58.20;;;;;;4990720;28;20037;-68
2023/12/28 08:06:32;;;;;;;3.33;2.03;;;18.30;58.20;;;;;;4987885;28;20314;-68
2023/12/28 08:08:59;;;;;;;2.65;2.03;;;18.30;58.20;;;;;;4984242;28;20030;-68
2023/12/28 08:11:24;;;;;;;2.67;2.17;;;18.30;58.20;;;;;;4986098;28;20033;-67
2023/12/28 08:13:50;;;;;;;2.60;1.90;;;18.30;58.20;;;;;;4985130;28;20034;-67
2023/12/28 08:16:15;;;;;;;1.83;1.70;;;18.30;58.30;;;;;;4963648;28;20030;-67
2023/12/28 08:18:41;;;;;;;2.95;2.20;;;18.30;58.30;;;;;;4989516;28;20097;-67
2023/12/28 08:21:06;;;;;;;2.13;1.90;;;18.20;58.30;;;;;;4984967;28;20748;-66
2023/12/28 08:23:32;;;;;;;2.72;2.13;;;18.20;58.40;;;;;;4985103;28;20054;-67
2023/12/28 08:25:57;;;;;;;2.72;1.83;;;18.20;58.40;;;;;;4984439;28;20026;-67
2023/12/28 08:28:23;;;;;;;3.08;1.75;;;18.20;59.10;;;;;;4974118;28;20049;-68
2023/12/28 08:30:48;;;;;;;2.97;1.80;;;18.20;58.50;;;;;;4989321;28;20033;-67
2023/12/28 08:33:14;;;;;;;2.50;1.92;;;18.10;58.50;;;;;;4987972;28;20034;-67
2023/12/28 08:35:39;;;;;;;2.60;1.85;;;18.20;58.70;;;;;;4989027;28;20072;-67
2023/12/28 08:38:06;;;;;;;4.07;2.28;;;18.10;58.70;;;;;;4987952;28;20061;-67
2023/12/28 08:40:31;;;;;;;2.10;1.80;;;18.10;58.70;;;;;;4988374;28;20054;-67
2023/12/28 08:42:57;;;;;;;3.55;2.63;;;18.10;58.70;;;;;;4988238;28;20038;-68
2023/12/28 08:45:23;;;;;;;2.60;2.40;;;18.10;58.70;;;;;;4989412;28;20043;-67
2023/12/28 08:47:48;;;;;;;3.35;2.70;;;18.10;58.70;;;;;;4992638;28;20102;-66
2023/12/28 08:50:14;;;;;;;2.40;2.03;;;18.10;58.70;;;;;;4987184;28;20053;-66
2023/12/28 08:52:40;;;;;;;3.10;2.17;;;18.00;58.90;;;;;;4993790;28;20038;-66
2023/12/28 08:55:06;;;;;;;3.28;2.20;;;18.00;58.70;;;;;;4995473;28;20113;-66
2023/12/28 08:57:31;;;;;;;2.60;1.90;;;18.00;58.80;;;;;;4995260;28;20026;-66
2023/12/28 09:00:00;;;;;;;2.60;2.10;;;18.00;58.80;;;;;;4990862;28;20038;-66
2023/12/28 09:02:27;;;;;;;2.10;1.77;;;17.90;58.80;;;;;;4991622;28;20125;-66
2023/12/28 09:04:53;;;;;;;4.07;2.15;;;17.90;58.90;;;;;;4987945;28;20030;-65
2023/12/28 09:07:19;;;;;;;2.63;1.92;;;17.90;58.90;;;;;;4990960;28;20110;-65
2023/12/28 09:09:45;;;;;;;3.75;2.50;;;17.90;59.00;;;;;;4987998;28;20034;-66
2023/12/28 09:12:11;;;;;;;3.47;2.30;;;17.90;58.90;;;;;;4996141;28;20529;-66
2023/12/28 09:14:37;;;;;;;2.63;2.30;;;17.90;59.00;;;;;;4982659;28;20549;-67
2023/12/28 09:17:02;;;;;;;4.35;2.10;;;17.90;59.10;;;;;;4989564;28;20027;-66
2023/12/28 09:19:28;;;;;;;4.50;2.40;;;17.90;59.10;;;;;;4987539;28;20125;-66
2023/12/28 09:21:53;;;;;;;3.45;2.30;;;17.80;59.00;;;;;;4989441;28;20720;-67
2023/12/28 09:24:19;;;;;;;2.35;2.15;;;17.80;59.00;;;;;;4987378;28;20050;-66
2023/12/28 09:26:45;;;;;;;3.35;2.60;;;17.80;59.00;;;;;;4988377;28;20033;-66
2023/12/28 09:29:10;;;;;;;2.85;2.25;;;17.80;59.00;;;;;;4986602;28;20057;-67
2023/12/28 09:31:37;;;;;;;2.60;2.28;;;17.80;59.10;;;;;;4987909;28;20032;-67
2023/12/28 09:34:04;;;;;;;3.30;2.15;;;17.80;59.10;;;;;;4987037;28;20540;-66
2023/12/28 09:36:30;;;;;;;3.83;2.08;;;17.80;59.10;;;;;;4987214;28;20034;-66
2023/12/28 09:38:55;;;;;;;3.53;2.15;;;17.80;59.10;;;;;;4987179;28;20564;-66
2023/12/28 09:41:25;;;;;;;2.47;2.10;;;17.70;59.10;;;;;;4986295;28;20058;-65
2023/12/28 09:43:57;;;;;;;3.33;2.40;;;17.70;59.10;;;;;;4987687;28;20117;-66
2023/12/28 09:46:23;;;;;;;2.70;2.17;;;17.70;59.10;;;;;;4991778;28;20038;-66
2023/12/28 09:48:49;;;;;;;2.67;2.03;;;17.70;59.10;;;;;;4993077;28;20579;-65
2023/12/28 09:51:14;;;;;;;3.20;2.72;;;17.70;59.10;;;;;;4993117;28;20057;-65
2023/12/28 09:53:40;;;;;;;4.22;2.42;;;17.70;59.20;;;;;;4987136;28;20485;-65
2023/12/28 09:56:06;;;;;;;3.03;2.67;;;17.70;59.10;;;;;;4986937;28;20022;-65
2023/12/28 09:58:35;;;;;;;2.58;2.30;;;17.70;59.10;;;;;;4992188;28;20030;-65
2023/12/28 10:01:01;;;;;;;3.08;2.10;;;17.70;59.20;;;;;;4993785;28;20081;-67
2023/12/28 10:03:26;;;;;;;2.72;2.10;;;17.60;59.10;;;;;;4998425;28;20038;-66
2023/12/28 10:05:52;;;;;;;3.85;2.50;;;17.70;59.20;;;;;;4985373;28;20068;-66
2023/12/28 10:08:17;;;;;;;1.67;1.58;;;17.70;59.20;;;;;;4975844;28;20027;-67
2023/12/28 10:10:50;;;;;;;4.10;2.33;;;17.70;59.20;;;;;;4991126;28;20025;-67
2023/12/28 10:13:16;;;;;;;3.20;2.10;;;17.60;59.10;;;;;;4991401;28;20037;-66
2023/12/28 10:15:43;;;;;;;2.03;1.80;;;17.60;59.20;;;;;;4986631;28;20397;-65
2023/12/28 10:18:09;;;;;;;4.20;2.42;;;17.60;59.20;;;;;;4989174;28;20029;-66
2023/12/28 10:20:34;;;;;;;3.17;2.22;;;17.60;59.10;;;;;;4986118;28;20031;-68
2023/12/28 10:23:03;;;;;;;3.00;2.45;;;17.60;59.10;;;;;;4989153;28;20038;-66
2023/12/28 10:25:30;;;;;;;4.07;2.90;;;17.60;59.10;;;;;;4982711;28;21202;-66
2023/12/28 10:27:55;;;;;;;4.32;2.90;;;17.60;59.10;;;;;;4988118;28;20081;-66
2023/12/28 10:30:21;;;;;;;4.43;3.08;;;17.60;59.20;;;;;;4993373;28;20042;-65
2023/12/28 10:32:47;;;;;;;5.72;3.30;;;17.60;59.20;;;;;;4987193;28;20037;-66
2023/12/28 10:35:13;;;;;;;7.95;4.90;;;17.60;59.20;;;;;;4985151;28;20084;-66
2023/12/28 10:37:42;;;;;;;11.75;6.00;;;17.60;59.10;;;;;;4986537;28;20031;-66
2023/12/28 10:40:17;;;;;;;11.20;6.38;;;17.60;59.20;;;;;;4985251;28;20525;-68
2023/12/28 10:42:57;;;;;;;11.68;6.90;;;17.70;59.20;;;;;;4986259;28;20046;-65
2023/12/28 10:45:25;;;;;;;13.68;7.55;;;17.90;58.70;;;;;;4985151;28;20042;-67
2023/12/28 10:48:01;;;;;;;14.73;7.78;;;18.20;58.20;;;;;;4992219;28;20088;-65
2023/12/28 10:50:30;;;;;;;16.25;8.25;;;18.50;57.50;;;;;;4994962;28;20050;-66
2023/12/28 10:53:04;;;;;;;15.85;8.73;;;18.80;56.80;;;;;;4995953;28;20037;-66
2023/12/28 10:56:02;;;;;;;17.80;8.55;;;19.10;56.30;;;;;;4988511;28;20571;-67
2023/12/28 10:58:46;;;;;;;15.23;8.90;;;19.40;55.80;;;;;;4991636;28;20057;-67
2023/12/28 11:01:35;;;;;;;16.10;8.40;;;19.70;55.10;;;;;;4983073;28;20038;-67
2023/12/28 11:04:16;;;;;;;17.25;9.07;;;20.00;54.50;;;;;;4986399;28;20034;-67
2023/12/28 11:06:43;;;;;;;15.35;8.93;;;20.20;54.00;;;;;;4984203;28;20069;-66
2023/12/28 11:09:10;;;;;;;15.80;9.25;;;20.30;53.80;;;;;;4984513;28;20038;-67
2023/12/28 11:11:37;;;;;;;17.20;9.35;;;20.30;53.80;;;;;;4984483;28;20034;-67
2023/12/28 11:14:04;;;;;;;17.42;10.63;;;20.30;54.00;;;;;;4979862;28;20034;-68
2023/12/28 11:16:32;;;;;;;17.45;9.35;;;20.30;54.10;;;;;;4981999;28;20038;-67
2023/12/28 11:18:58;;;;;;;19.95;9.73;;;20.20;54.20;;;;;;4984125;28;20042;-67
2023/12/28 11:21:24;;;;;;;17.30;9.98;;;20.20;54.50;;;;;;4982458;28;20038;-67
2023/12/28 11:23:49;;;;;;;17.58;9.05;;;20.10;55.30;;;;;;4984420;28;20045;-67
2023/12/28 11:26:20;;;;;;;16.70;9.80;;;20.00;54.80;;;;;;4981520;28;20027;-68
2023/12/28 11:28:46;;;;;;;21.40;11.18;;;19.90;55.00;;;;;;4984285;28;20106;-67
2023/12/28 11:31:15;;;;;;;20.67;10.20;;;19.80;55.20;;;;;;4981691;28;20030;-66
2023/12/28 11:33:49;;;;;;;19.42;9.43;;;19.80;55.40;;;;;;4977213;28;20034;-67
2023/12/28 11:36:37;;;;;;;21.45;10.73;;;19.70;55.60;;;;;;4981595;28;20034;-67
2023/12/28 11:39:06;;;;;;;19.48;11.20;;;19.60;55.80;;;;;;4978670;28;20069;-64
2023/12/28 11:41:33;;;;;;;19.63;11.07;;;19.60;56.00;;;;;;4981833;28;20118;-67
2023/12/28 11:44:02;;;;;;;20.40;11.30;;;19.40;56.10;;;;;;4984242;28;20042;-67
2023/12/28 11:46:29;;;;;;;24.58;11.48;;;19.40;56.30;;;;;;4983917;28;20034;-67
2023/12/28 11:49:07;;;;;;;19.85;10.75;;;19.40;56.50;;;;;;4984985;28;20113;-67
2023/12/28 11:51:36;;;;;;;19.05;10.63;;;19.30;56.70;;;;;;4983825;28;20061;-66
2023/12/28 11:54:03;;;;;;;19.40;10.35;;;19.20;56.80;;;;;;4984918;28;20054;-66
2023/12/28 11:56:34;;;;;;;19.20;10.68;;;19.20;57.00;;;;;;4984279;28;20038;-66
2023/12/28 11:59:00;;;;;;;18.67;9.93;;;19.10;57.00;;;;;;4983618;28;20046;-65
2023/12/28 12:01:25;;;;;;;18.55;10.00;;;19.10;57.10;;;;;;4983263;28;20035;-65
2023/12/28 12:03:51;;;;;;;18.73;10.40;;;19.00;57.20;;;;;;4986656;28;20734;-66
2023/12/28 12:06:16;;;;;;;16.30;9.80;;;19.00;57.30;;;;;;4969922;28;20042;-67
2023/12/28 12:08:46;;;;;;;21.45;11.27;;;18.90;57.30;;;;;;4988731;28;20445;-66
2023/12/28 12:11:12;;;;;;;18.20;9.98;;;18.90;57.50;;;;;;4987680;28;20042;-65
2023/12/28 12:13:37;;;;;;;20.73;10.27;;;18.90;57.50;;;;;;4987015;28;20034;-65
2023/12/28 12:16:05;;;;;;;16.45;9.40;;;18.90;57.60;;;;;;4989316;28;20056;-67
2023/12/28 12:18:32;;;;;;;19.17;10.05;;;18.80;57.80;;;;;;4970299;28;20050;-66
2023/12/28 12:20:58;;;;;;;14.43;9.43;;;18.80;57.90;;;;;;4990987;28;20045;-66
2023/12/28 12:23:23;;;;;;;17.13;9.27;;;18.70;57.80;;;;;;4991367;28;20042;-66
2023/12/28 12:25:49;;;;;;;18.00;9.75;;;18.70;57.90;;;;;;4989263;28;20041;-66
2023/12/28 12:28:15;;;;;;;14.93;9.07;;;18.70;58.00;;;;;;4988402;28;20053;-65
2023/12/28 12:30:40;;;;;;;14.88;8.38;;;18.60;57.90;;;;;;4967970;28;20068;-65
2023/12/28 12:33:06;;;;;;;15.80;9.23;;;18.60;58.00;;;;;;4989552;28;20085;-66
2023/12/28 12:35:31;;;;;;;11.98;7.60;;;18.60;58.10;;;;;;4986815;28;20030;-66
2023/12/28 12:37:57;;;;;;;16.98;8.98;;;18.60;58.10;;;;;;4986400;28;20035;-64
2023/12/28 12:40:23;;;;;;;18.55;8.90;;;18.60;58.20;;;;;;4984168;28;20730;-64
2023/12/28 12:42:55;;;;;;;14.70;8.70;;;18.50;58.30;;;;;;4986090;28;20022;-65